createdAt,value
2018-09-01T00:00:06.786Z,6.87
2018-09-01T00:02:34.555Z,7.53
2018-09-01T00:05:02.328Z,7.80
2018-09-01T00:07:30.050Z,6.27
2018-09-01T00:09:57.762Z,6.53
2018-09-01T00:12:25.507Z,7.00
2018-09-01T00:14:53.263Z,6.30
2018-09-01T00:17:26.852Z,6.23
2018-09-01T00:19:54.669Z,6.07
2018-09-01T00:22:22.331Z,6.27
2018-09-01T00:24:51.062Z,6.47
2018-09-01T00:27:20.258Z,6.33
2018-09-01T00:29:48.326Z,5.73
2018-09-01T00:32:16.014Z,5.87
2018-09-01T00:34:47.490Z,6.70
2018-09-01T00:37:21.372Z,5.93
2018-09-01T00:39:49.002Z,5.67
2018-09-01T00:42:16.658Z,5.73
2018-09-01T00:44:44.344Z,5.93
2018-09-01T00:47:12.027Z,6.17
2018-09-01T00:49:39.729Z,6.73
2018-09-01T00:52:07.462Z,5.83
2018-09-01T00:54:35.123Z,5.53
2018-09-01T00:57:03.281Z,5.47
2018-09-01T00:59:30.974Z,5.50
2018-09-01T01:01:58.735Z,5.80
2018-09-01T01:04:26.410Z,6.00
2018-09-01T01:06:54.310Z,7.13
2018-09-01T01:09:22.082Z,6.30
2018-09-01T01:11:49.903Z,6.53
2018-09-01T01:14:29.163Z,7.07
2018-09-01T01:16:56.898Z,6.30
2018-09-01T01:19:24.637Z,7.20
2018-09-01T01:21:52.424Z,7.60
2018-09-01T01:24:20.447Z,7.40
2018-09-01T01:26:52.756Z,7.40
2018-09-01T01:29:20.455Z,7.57
2018-09-01T01:31:48.124Z,7.83
2018-09-01T01:34:15.908Z,7.30
2018-09-01T01:36:43.656Z,8.93
2018-09-01T01:39:11.407Z,8.37
2018-09-01T01:41:39.175Z,7.60
2018-09-01T01:44:07.665Z,7.90
2018-09-01T01:46:35.326Z,9.30
2018-09-01T01:49:03.155Z,8.63
2018-09-01T01:51:30.900Z,7.47
2018-09-01T01:53:58.659Z,8.87
2018-09-01T01:56:26.387Z,9.27
2018-09-01T01:58:54.085Z,9.40
2018-09-01T02:01:21.751Z,9.47
2018-09-01T02:03:53.344Z,9.43
2018-09-01T02:06:21.059Z,9.53
2018-09-01T02:08:48.723Z,9.83
2018-09-01T02:11:16.413Z,9.50
2018-09-01T02:13:44.127Z,8.97
2018-09-01T02:16:11.807Z,8.80
2018-09-01T02:18:39.489Z,10.00
2018-09-01T02:21:07.154Z,9.90
2018-09-01T02:23:34.814Z,9.83
2018-09-01T02:26:02.639Z,10.33
2018-09-01T02:28:30.330Z,12.40
2018-09-01T02:30:58.300Z,11.73
2018-09-01T02:33:25.999Z,11.73
2018-09-01T02:35:53.735Z,11.70
2018-09-01T02:38:21.522Z,11.83
2018-09-01T02:40:49.403Z,11.67
2018-09-01T02:43:17.083Z,11.77
2018-09-01T02:45:44.803Z,11.20
2018-09-01T02:48:12.672Z,11.97
2018-09-01T02:50:40.347Z,11.90
2018-09-01T02:53:08.066Z,13.07
2018-09-01T02:55:35.755Z,12.40
2018-09-01T02:58:03.470Z,11.87
2018-09-01T03:00:35.756Z,11.67
2018-09-01T03:03:03.707Z,11.37
2018-09-01T03:05:31.408Z,11.40
2018-09-01T03:07:59.231Z,11.83
2018-09-01T03:10:26.964Z,11.10
2018-09-01T03:12:54.659Z,10.30
2018-09-01T03:15:22.358Z,9.37
2018-09-01T03:17:50.220Z,10.40
2018-09-01T03:20:17.954Z,10.87
2018-09-01T03:22:45.681Z,9.97
2018-09-01T03:25:13.396Z,10.00
2018-09-01T03:27:41.083Z,10.17
2018-09-01T03:30:09.072Z,9.73
2018-09-01T03:32:36.815Z,9.17
2018-09-01T03:35:05.223Z,9.97
2018-09-01T03:37:32.934Z,10.47
2018-09-01T03:40:00.758Z,10.43
2018-09-01T03:42:28.751Z,11.77
2018-09-01T03:44:56.401Z,12.83
2018-09-01T03:47:24.062Z,10.60
2018-09-01T03:49:52.059Z,11.90
2018-09-01T03:52:19.768Z,11.60
2018-09-01T03:54:47.519Z,12.80
2018-09-01T03:57:15.198Z,12.10
2018-09-01T03:59:42.887Z,13.00
2018-09-01T04:02:10.702Z,11.17
2018-09-01T04:04:38.452Z,12.43
2018-09-01T04:07:06.235Z,12.30
2018-09-01T04:09:33.919Z,12.20
2018-09-01T04:12:01.780Z,12.60
2018-09-01T04:14:29.560Z,12.63
2018-09-01T04:16:57.227Z,12.77
2018-09-01T04:19:24.983Z,12.73
2018-09-01T04:21:52.739Z,12.90
2018-09-01T04:24:21.339Z,13.53
2018-09-01T04:26:49.076Z,13.70
2018-09-01T04:29:17.227Z,14.47
2018-09-01T04:31:45.607Z,15.33
2018-09-01T04:34:13.743Z,14.17
2018-09-01T04:36:41.774Z,15.27
2018-09-01T04:39:10.983Z,14.30
2018-09-01T04:41:38.880Z,15.07
2018-09-01T04:44:06.671Z,16.13
2018-09-01T04:46:34.436Z,16.40
2018-09-01T04:49:02.206Z,17.60
2018-09-01T04:51:29.911Z,14.90
2018-09-01T04:53:57.681Z,18.47
2018-09-01T04:56:25.780Z,18.13
2018-09-01T04:58:53.534Z,15.90
2018-09-01T05:01:21.335Z,16.43
2018-09-01T05:03:49.072Z,14.83
2018-09-01T05:06:16.847Z,19.83
2018-09-01T05:08:44.566Z,16.53
2018-09-01T05:11:12.468Z,16.93
2018-09-01T05:13:40.167Z,17.23
2018-09-01T05:16:07.930Z,16.30
2018-09-01T05:18:35.692Z,17.17
2018-09-01T05:21:03.399Z,18.83
2018-09-01T05:23:31.078Z,18.70
2018-09-01T05:25:58.884Z,18.87
2018-09-01T05:28:26.609Z,18.30
2018-09-01T05:30:54.380Z,23.33
2018-09-01T05:33:22.201Z,18.13
2018-09-01T05:35:50.090Z,19.90
2018-09-01T05:38:18.848Z,21.47
2018-09-01T05:40:46.559Z,21.53
2018-09-01T05:43:14.494Z,19.67
2018-09-01T05:45:42.289Z,21.40
2018-09-01T05:48:11.494Z,19.00
2018-09-01T05:50:39.261Z,19.97
2018-09-01T05:53:07.018Z,19.77
2018-09-01T05:55:34.896Z,20.03
2018-09-01T05:58:02.654Z,19.93
2018-09-01T06:00:34.869Z,19.27
2018-09-01T06:03:02.666Z,20.23
2018-09-01T06:05:30.410Z,20.13
2018-09-01T06:07:58.118Z,19.70
2018-09-01T06:10:25.871Z,18.20
2018-09-01T06:12:53.654Z,18.53
2018-09-01T06:15:21.362Z,20.60
2018-09-01T06:17:49.339Z,19.53
2018-09-01T06:20:17.015Z,16.17
2018-09-01T06:22:44.767Z,16.50
2018-09-01T06:25:12.564Z,14.33
2018-09-01T06:27:47.016Z,17.83
2018-09-01T06:30:18.470Z,15.80
2018-09-01T06:32:46.136Z,16.60
2018-09-01T06:35:13.880Z,17.93
2018-09-01T06:37:41.709Z,15.77
2018-09-01T06:40:09.733Z,15.63
2018-09-01T06:42:37.461Z,15.87
2018-09-01T06:45:05.202Z,15.93
2018-09-01T06:47:32.962Z,15.07
2018-09-01T06:50:00.728Z,15.83
2018-09-01T06:52:28.491Z,18.10
2018-09-01T06:54:56.188Z,17.43
2018-09-01T06:57:23.896Z,15.70
2018-09-01T06:59:51.759Z,16.60
2018-09-01T07:02:19.455Z,15.77
2018-09-01T07:04:47.139Z,20.33
2018-09-01T07:07:14.834Z,16.27
2018-09-01T07:09:42.510Z,16.23
2018-09-01T07:12:10.479Z,15.73
2018-09-01T07:14:38.165Z,14.60
2018-09-01T07:17:05.919Z,17.97
2018-09-01T07:19:33.679Z,13.57
2018-09-01T07:22:01.348Z,12.60
2018-09-01T07:24:29.058Z,13.20
2018-09-01T07:26:57.079Z,17.73
2018-09-01T07:29:25.839Z,13.67
2018-09-01T07:31:53.530Z,11.80
2018-09-01T07:34:21.500Z,13.67
2018-09-01T07:36:49.282Z,12.67
2018-09-01T07:39:17.014Z,12.00
2018-09-01T07:41:44.859Z,11.67
2018-09-01T07:44:12.627Z,11.40
2018-09-01T07:46:40.310Z,11.40
2018-09-01T07:49:08.058Z,11.80
2018-09-01T07:51:35.763Z,10.63
2018-09-01T07:54:03.470Z,10.67
2018-09-01T07:56:31.198Z,11.43
2018-09-01T07:58:59.101Z,12.97
2018-09-01T08:01:26.798Z,12.20
2018-09-01T08:03:54.506Z,9.67
2018-09-01T08:06:22.199Z,9.30
2018-09-01T08:08:49.903Z,11.37
2018-09-01T08:11:17.931Z,10.50
2018-09-01T08:13:46.012Z,9.07
2018-09-01T08:16:13.818Z,11.63
2018-09-01T08:18:41.574Z,11.10
2018-09-01T08:21:09.351Z,10.63
2018-09-01T08:23:37.098Z,11.20
2018-09-01T08:26:05.093Z,12.53
2018-09-01T08:28:32.865Z,12.83
2018-09-01T08:31:01.123Z,11.03
2018-09-01T08:33:28.897Z,9.87
2018-09-01T08:35:56.810Z,9.50
2018-09-01T08:38:24.520Z,8.80
2018-09-01T08:40:52.275Z,9.00
2018-09-01T08:43:20.067Z,10.40
2018-09-01T08:45:47.738Z,10.80
2018-09-01T08:48:15.447Z,9.30
2018-09-01T08:50:43.146Z,10.13
2018-09-01T08:53:10.858Z,12.10
2018-09-01T08:55:38.563Z,11.60
2018-09-01T08:58:06.391Z,8.97
2018-09-01T09:00:34.087Z,8.97
2018-09-01T09:03:01.797Z,12.47
2018-09-01T09:05:29.498Z,10.30
2018-09-01T09:07:57.247Z,9.27
2018-09-01T09:10:25.205Z,10.00
2018-09-01T09:12:52.986Z,10.70
2018-09-01T09:15:20.728Z,8.90
2018-09-01T09:17:48.840Z,10.10
2018-09-01T09:20:16.655Z,10.83
2018-09-01T09:22:44.563Z,10.97
2018-09-01T09:25:12.281Z,9.40
2018-09-01T09:27:40.079Z,9.30
2018-09-01T09:30:08.257Z,8.20
2018-09-01T09:32:36.120Z,10.07
2018-09-01T09:35:03.926Z,9.03
2018-09-01T09:37:31.999Z,9.63
2018-09-01T09:39:59.716Z,9.00
2018-09-01T09:42:27.411Z,8.43
2018-09-01T09:44:55.091Z,10.40
2018-09-01T09:47:23.055Z,10.33
2018-09-01T09:49:50.720Z,9.47
2018-09-01T09:52:18.514Z,7.70
2018-09-01T09:54:46.258Z,5.33
2018-09-01T09:57:13.919Z,6.13
2018-09-01T09:59:41.930Z,5.30
2018-09-01T10:02:09.594Z,5.17
2018-09-01T10:04:37.303Z,6.03
2018-09-01T10:07:05.441Z,5.03
2018-09-01T10:09:33.196Z,4.27
2018-09-01T10:12:01.239Z,4.83
2018-09-01T10:14:29.027Z,4.70
2018-09-01T10:16:56.824Z,4.50
2018-09-01T10:19:24.616Z,4.40
2018-09-01T10:21:52.506Z,3.80
2018-09-01T10:24:20.174Z,3.93
2018-09-01T10:26:48.047Z,3.67
2018-09-01T10:29:15.699Z,3.67
2018-09-01T10:31:43.498Z,3.73
2018-09-01T10:34:11.205Z,3.70
2018-09-01T10:36:39.186Z,4.33
2018-09-01T10:39:08.514Z,3.57
2018-09-01T10:41:36.278Z,3.90
2018-09-01T10:44:04.005Z,3.70
2018-09-01T10:46:31.730Z,3.57
2018-09-01T10:48:59.712Z,3.90
2018-09-01T10:51:27.432Z,3.03
2018-09-01T10:53:55.095Z,3.00
2018-09-01T10:56:22.879Z,3.33
2018-09-01T10:58:50.632Z,3.03
2018-09-01T11:01:18.369Z,3.20
2018-09-01T11:03:46.150Z,3.20
2018-09-01T11:06:14.347Z,2.90
2018-09-01T11:08:42.047Z,2.70
2018-09-01T11:11:09.741Z,2.47
2018-09-01T11:13:39.504Z,3.00
2018-09-01T11:16:07.532Z,4.10
2018-09-01T11:19:55.506Z,3.87
2018-09-01T11:22:23.250Z,3.00
2018-09-01T11:24:51.002Z,2.80
2018-09-01T11:27:18.781Z,2.73
2018-09-01T11:29:46.504Z,2.73
2018-09-01T11:32:15.432Z,2.63
2018-09-01T11:34:43.169Z,2.40
2018-09-01T11:37:10.849Z,2.77
2018-09-01T11:39:38.530Z,2.20
2018-09-01T11:42:06.463Z,2.50
2018-09-01T11:44:34.250Z,2.93
2018-09-01T11:47:02.219Z,3.03
2018-09-01T11:49:30.006Z,2.30
2018-09-01T11:51:57.699Z,2.40
2018-09-01T11:54:25.523Z,2.33
2018-09-01T11:56:53.284Z,2.43
2018-09-01T11:59:20.969Z,2.57
2018-09-01T12:01:49.026Z,2.37
2018-09-01T12:04:17.380Z,2.63
2018-09-01T12:06:45.950Z,2.30
2018-09-01T12:09:13.727Z,2.33
2018-09-01T12:11:41.365Z,1.97
2018-09-01T12:14:09.086Z,2.43
2018-09-01T12:16:36.787Z,2.80
2018-09-01T12:19:10.111Z,2.47
2018-09-01T12:21:37.935Z,2.30
2018-09-01T12:24:06.048Z,2.67
2018-09-01T12:26:34.065Z,2.00
2018-09-01T12:29:01.842Z,2.10
2018-09-01T12:31:29.559Z,2.92
2018-09-01T12:33:57.259Z,3.53
2018-09-01T12:36:25.309Z,2.87
2018-09-01T12:38:52.962Z,3.03
2018-09-01T12:41:20.783Z,2.20
2018-09-01T12:43:48.812Z,2.50
2018-09-01T12:46:16.564Z,2.47
2018-09-01T12:48:44.213Z,2.87
2018-09-01T12:51:11.930Z,2.10
2018-09-01T12:53:39.959Z,8.33
2018-09-01T12:56:07.870Z,2.10
2018-09-01T12:58:35.744Z,2.10
2018-09-01T13:01:03.559Z,2.40
2018-09-01T13:03:31.272Z,1.87
2018-09-01T13:05:59.073Z,1.87
2018-09-01T13:08:26.987Z,1.80
2018-09-01T13:10:54.732Z,3.03
2018-09-01T13:13:22.892Z,2.27
2018-09-01T13:15:50.651Z,1.90
2018-09-01T13:18:18.526Z,2.00
2018-09-01T13:20:50.481Z,2.80
2018-09-01T13:23:18.274Z,2.57
2018-09-01T13:25:45.955Z,2.30
2018-09-01T13:28:13.827Z,2.13
2018-09-01T13:30:41.522Z,1.90
2018-09-01T13:33:09.303Z,2.77
2018-09-01T13:35:36.965Z,1.97
2018-09-01T13:38:04.769Z,2.50
2018-09-01T13:40:32.516Z,2.47
2018-09-01T13:43:00.207Z,2.10
2018-09-01T13:45:27.870Z,2.23
2018-09-01T13:47:55.591Z,1.97
2018-09-01T13:50:23.317Z,2.07
2018-09-01T13:52:51.103Z,2.30
2018-09-01T13:55:18.798Z,2.33
2018-09-01T13:57:46.564Z,2.30
2018-09-01T14:00:14.283Z,1.80
2018-09-01T14:02:42.068Z,2.53
2018-09-01T14:05:09.847Z,2.13
2018-09-01T14:07:37.514Z,1.77
2018-09-01T14:10:05.942Z,2.30
2018-09-01T14:12:33.623Z,2.10
2018-09-01T14:15:01.328Z,2.13
2018-09-01T14:17:29.091Z,2.00
2018-09-01T14:19:57.126Z,2.23
2018-09-01T14:22:24.838Z,1.93
2018-09-01T14:24:52.551Z,3.17
2018-09-01T14:27:20.308Z,2.30
2018-09-01T14:29:54.902Z,2.10
2018-09-01T14:32:22.739Z,1.90
2018-09-01T14:34:50.407Z,2.80
2018-09-01T14:37:18.232Z,1.80
2018-09-01T14:39:45.837Z,2.37
2018-09-01T14:42:13.552Z,2.33
2018-09-01T14:44:41.290Z,2.03
2018-09-01T14:47:09.077Z,2.40
2018-09-01T14:49:36.742Z,1.70
2018-09-01T14:52:04.515Z,2.83
2018-09-01T14:54:36.116Z,2.00
2018-09-01T14:57:03.883Z,2.23
2018-09-01T14:59:31.751Z,2.63
2018-09-01T15:01:59.435Z,2.13
2018-09-01T15:04:27.200Z,2.70
2018-09-01T15:06:55.023Z,2.00
2018-09-01T15:09:22.803Z,2.00
2018-09-01T15:11:50.543Z,2.00
2018-09-01T15:14:18.292Z,2.50
2018-09-01T15:16:46.046Z,2.00
2018-09-01T15:19:13.750Z,2.47
2018-09-01T15:21:42.157Z,2.13
2018-09-01T15:24:09.827Z,2.03
2018-09-01T15:26:37.882Z,2.10
2018-09-01T15:29:05.587Z,2.17
2018-09-01T15:31:33.299Z,2.13
2018-09-01T15:34:07.820Z,2.53
2018-09-01T15:36:35.641Z,1.90
2018-09-01T15:39:03.778Z,1.80
2018-09-01T15:41:32.086Z,2.10
2018-09-01T15:43:59.987Z,3.63
2018-09-01T15:46:27.975Z,3.00
2018-09-01T15:48:55.807Z,2.27
2018-09-01T15:51:23.712Z,2.77
2018-09-01T15:53:51.597Z,2.07
2018-09-01T15:56:23.442Z,2.40
2018-09-01T15:58:51.281Z,2.00
2018-09-01T16:01:19.107Z,1.83
2018-09-01T16:03:53.698Z,2.10
2018-09-01T16:06:21.508Z,2.40
2018-09-01T16:08:50.596Z,1.70
2018-09-01T16:11:18.280Z,2.10
2018-09-01T16:13:46.451Z,2.17
2018-09-01T16:16:14.139Z,1.80
2018-09-01T16:18:41.985Z,2.40
2018-09-01T16:21:09.680Z,2.40
2018-09-01T16:23:37.439Z,1.80
2018-09-01T16:26:05.103Z,1.97
2018-09-01T16:28:33.015Z,1.87
2018-09-01T16:31:00.801Z,2.13
2018-09-01T16:33:28.581Z,1.90
2018-09-01T16:35:56.271Z,1.90
2018-09-01T16:38:24.696Z,2.33
2018-09-01T16:40:52.625Z,1.97
2018-09-01T16:43:20.406Z,2.00
2018-09-01T16:45:48.251Z,1.97
2018-09-01T16:48:15.990Z,2.30
2018-09-01T16:50:43.750Z,2.47
2018-09-01T16:53:11.734Z,1.77
2018-09-01T16:55:39.434Z,1.90
2018-09-01T16:58:07.123Z,2.23
2018-09-01T17:00:34.967Z,2.17
2018-09-01T17:03:02.602Z,2.00
2018-09-01T17:05:30.328Z,2.03
2018-09-01T17:07:58.003Z,2.50
2018-09-01T17:10:25.767Z,2.00
2018-09-01T17:12:53.510Z,2.23
2018-09-01T17:15:21.334Z,2.20
2018-09-01T17:17:49.462Z,1.90
2018-09-01T17:20:17.294Z,1.80
2018-09-01T17:22:44.962Z,2.07
2018-09-01T17:25:12.699Z,2.40
2018-09-01T17:27:40.376Z,2.23
2018-09-01T17:30:08.212Z,3.07
2018-09-01T17:32:36.098Z,2.20
2018-09-01T17:35:03.839Z,2.40
2018-09-01T17:37:31.667Z,2.27
2018-09-01T17:39:59.467Z,2.30
2018-09-01T17:42:30.751Z,2.10
2018-09-01T17:44:58.447Z,2.40
2018-09-01T17:47:26.182Z,2.00
2018-09-01T17:49:54.260Z,2.50
2018-09-01T17:52:22.017Z,2.27
2018-09-01T17:54:50.024Z,2.00
2018-09-01T17:57:17.970Z,2.00
2018-09-01T17:59:45.629Z,2.30
2018-09-01T18:02:13.868Z,2.10
2018-09-01T18:04:41.610Z,2.10
2018-09-01T18:07:09.335Z,2.00
2018-09-01T18:15:50.302Z,1.90
2018-09-01T18:18:18.098Z,1.80
2018-09-01T18:20:45.847Z,2.00
2018-09-01T18:23:13.548Z,1.80
2018-09-01T18:25:41.379Z,1.90
2018-09-01T18:28:09.189Z,1.70
2018-09-01T18:30:36.875Z,1.90
2018-09-01T18:33:04.651Z,1.63
2018-09-01T18:35:32.320Z,1.80
2018-09-01T18:38:00.061Z,1.57
2018-09-01T18:40:27.969Z,1.53
2018-09-01T18:42:55.723Z,1.47
2018-09-01T18:45:23.503Z,1.90
2018-09-01T18:47:51.556Z,1.70
2018-09-01T18:50:19.298Z,1.60
2018-09-01T18:52:46.996Z,2.30
2018-09-01T18:55:14.678Z,1.97
2018-09-01T18:57:42.430Z,2.00
2018-09-01T19:00:10.199Z,1.97
2018-09-01T19:02:37.929Z,2.00
2018-09-01T19:05:05.773Z,1.80
2018-09-01T19:07:33.454Z,2.30
2018-09-01T19:10:01.355Z,2.23
2018-09-01T19:12:29.106Z,2.20
2018-09-01T19:14:56.884Z,2.10
2018-09-01T19:17:24.699Z,2.50
2018-09-01T19:19:56.184Z,2.53
2018-09-01T19:22:23.937Z,2.00
2018-09-01T19:24:52.048Z,2.37
2018-09-01T19:27:19.828Z,2.13
2018-09-01T19:29:47.636Z,2.20
2018-09-01T19:32:15.376Z,2.50
2018-09-01T19:34:43.101Z,2.47
2018-09-01T19:37:11.155Z,3.43
2018-09-01T19:39:38.971Z,4.23
2018-09-01T19:42:06.778Z,5.33
2018-09-01T19:44:34.481Z,6.83
2018-09-01T19:47:02.147Z,7.17
2018-09-01T19:49:29.857Z,6.30
2018-09-01T19:51:57.536Z,6.00
2018-09-01T19:54:25.242Z,4.87
2018-09-01T19:56:53.056Z,5.40
2018-09-01T19:59:20.754Z,5.93
2018-09-01T20:01:55.335Z,4.77
2018-09-01T20:04:23.124Z,3.93
2018-09-01T20:06:51.248Z,4.17
2018-09-01T20:09:19.202Z,3.60
2018-09-01T20:11:46.942Z,3.47
2018-09-01T20:14:14.791Z,3.30
2018-09-01T20:16:42.592Z,3.10
2018-09-01T20:19:10.372Z,2.20
2018-09-01T20:22:04.810Z,2.20
2018-09-01T20:24:35.830Z,2.27
2018-09-01T20:27:03.585Z,1.83
2018-09-01T20:29:31.423Z,2.00
2018-09-01T20:31:59.283Z,2.03
2018-09-01T20:34:27.066Z,2.10
2018-09-01T20:36:54.844Z,1.73
2018-09-01T20:39:22.556Z,2.00
2018-09-01T20:41:50.238Z,1.80
2018-09-01T20:44:18.015Z,1.80
2018-09-01T20:46:45.703Z,1.50
2018-09-01T20:49:13.410Z,1.63
2018-09-01T20:51:41.246Z,2.00
2018-09-01T20:54:09.011Z,1.80
2018-09-01T20:56:37.932Z,2.13
2018-09-01T20:59:05.722Z,1.77
2018-09-01T21:01:33.729Z,2.33
2018-09-01T21:04:01.935Z,2.47
2018-09-01T21:06:29.643Z,2.97
2018-09-01T21:08:57.728Z,2.53
2018-09-01T21:11:25.399Z,2.23
2018-09-01T21:13:53.733Z,2.33
2018-09-01T21:16:21.838Z,2.30
2018-09-01T21:18:49.531Z,1.83
2018-09-01T21:21:23.907Z,2.17
2018-09-01T21:23:51.705Z,2.30
2018-09-01T21:26:19.534Z,2.20
2018-09-01T21:28:47.199Z,2.23
2018-09-01T21:31:15.906Z,2.17
2018-09-01T21:33:43.714Z,2.30
2018-09-01T21:36:11.669Z,2.23
2018-09-01T21:38:39.382Z,1.87
2018-09-01T21:41:08.737Z,2.10
2018-09-01T21:43:36.430Z,2.90
2018-09-01T21:46:04.413Z,3.03
2018-09-01T21:48:32.123Z,2.87
2018-09-01T21:50:59.827Z,2.90
2018-09-01T21:53:28.103Z,2.77
2018-09-01T21:55:55.967Z,3.17
2018-09-01T21:58:23.717Z,2.33
2018-09-01T22:00:52.399Z,2.80
2018-09-01T22:03:23.711Z,3.07
2018-09-01T22:05:51.438Z,2.50
2018-09-01T22:08:19.407Z,3.10
2018-09-01T22:10:47.126Z,2.63
2018-09-01T22:13:16.207Z,3.33
2018-09-01T22:15:45.242Z,3.20
2018-09-01T22:18:13.190Z,3.40
2018-09-01T22:20:41.622Z,3.20
2018-09-01T22:23:09.351Z,3.20
2018-09-01T22:25:37.107Z,3.40
2018-09-01T22:28:05.079Z,3.53
2018-09-01T22:30:33.522Z,3.47
2018-09-01T22:33:01.216Z,3.30
2018-09-01T22:35:29.043Z,3.37
2018-09-01T22:37:56.755Z,3.37
2018-09-01T22:40:24.661Z,3.87
2018-09-01T22:42:52.431Z,3.43
2018-09-01T22:45:20.167Z,4.03
2018-09-01T22:47:48.050Z,4.20
2018-09-01T22:50:15.751Z,3.70
2018-09-01T22:52:43.399Z,3.77
2018-09-01T22:55:11.922Z,3.40
2018-09-01T22:57:39.769Z,4.93
2018-09-01T23:00:07.488Z,4.00
2018-09-01T23:02:35.202Z,3.77
2018-09-01T23:05:03.731Z,3.97
2018-09-01T23:07:33.647Z,3.17
2018-09-01T23:10:02.273Z,3.20
2018-09-01T23:12:30.683Z,4.03
2018-09-01T23:14:58.585Z,4.00
2018-09-01T23:17:26.314Z,3.67
2018-09-01T23:19:54.096Z,4.40
2018-09-01T23:28:24.403Z,3.37
2018-09-01T23:30:52.859Z,3.10
2018-09-01T23:33:20.754Z,3.87
2018-09-01T23:35:51.748Z,3.63
2018-09-01T23:38:19.487Z,3.00
2018-09-01T23:40:47.180Z,3.20
2018-09-01T23:43:14.846Z,3.27
2018-09-01T23:45:43.413Z,3.53
2018-09-01T23:48:12.123Z,3.40
2018-09-01T23:50:39.782Z,3.80
2018-09-01T23:53:07.456Z,3.80
2018-09-01T23:55:35.139Z,3.70
2018-09-01T23:58:02.851Z,3.97
